createdAt,value
2019-05-23T00:00:10.923Z,0.00
2019-05-23T00:00:46.092Z,0.00
2019-05-23T00:01:21.457Z,0.00
2019-05-23T00:01:56.925Z,0.00
2019-05-23T00:02:32.232Z,0.00
2019-05-23T00:03:07.396Z,0.00
2019-05-23T00:03:42.489Z,0.00
2019-05-23T00:04:17.968Z,0.00
2019-05-23T00:04:53.180Z,0.00
2019-05-23T00:05:28.549Z,0.00
2019-05-23T00:06:04.044Z,0.00
2019-05-23T00:06:39.233Z,0.00
2019-05-23T00:07:14.631Z,0.00
2019-05-23T00:07:49.907Z,0.00
2019-05-23T00:08:25.308Z,0.00
2019-05-23T00:09:00.776Z,0.00
2019-05-23T00:09:35.960Z,0.00
2019-05-23T00:10:11.424Z,0.00
2019-05-23T00:10:47.027Z,0.00
2019-05-23T00:11:22.604Z,0.00
2019-05-23T00:11:57.720Z,0.00
2019-05-23T00:12:33.029Z,0.00
2019-05-23T00:13:08.822Z,0.00
2019-05-23T00:13:44.197Z,0.00
2019-05-23T00:14:19.961Z,0.00
2019-05-23T00:14:55.237Z,0.00
2019-05-23T00:15:30.436Z,0.00
2019-05-23T00:16:05.707Z,0.00
2019-05-23T00:16:41.324Z,0.00
2019-05-23T00:17:16.602Z,0.00
2019-05-23T00:17:51.888Z,0.00
2019-05-23T00:18:27.355Z,0.00
2019-05-23T00:19:02.673Z,0.00
2019-05-23T00:19:37.741Z,0.00
2019-05-23T00:20:13.259Z,0.00
2019-05-23T00:20:48.342Z,0.00
2019-05-23T00:21:23.561Z,0.00
2019-05-23T00:21:58.829Z,0.00
2019-05-23T00:22:34.131Z,0.00
2019-05-23T00:23:09.521Z,0.00
2019-05-23T00:23:44.830Z,0.00
2019-05-23T00:24:20.196Z,0.00
2019-05-23T00:24:55.498Z,0.00
2019-05-23T00:25:30.861Z,0.00
2019-05-23T00:26:06.279Z,0.00
2019-05-23T00:26:41.773Z,0.00
2019-05-23T00:27:16.977Z,0.00
2019-05-23T00:27:52.048Z,0.00
2019-05-23T00:28:27.647Z,0.00
2019-05-23T00:29:09.866Z,0.00
2019-05-23T00:29:40.427Z,0.00
2019-05-23T00:30:13.873Z,0.00
2019-05-23T00:30:49.389Z,0.00
2019-05-23T00:31:24.691Z,0.00
2019-05-23T00:32:00.387Z,0.00
2019-05-23T00:32:35.759Z,0.00
2019-05-23T00:33:11.151Z,0.00
2019-05-23T00:33:46.430Z,0.00
2019-05-23T00:34:21.727Z,0.00
2019-05-23T00:34:57.002Z,0.00
2019-05-23T00:35:32.506Z,0.00
2019-05-23T00:36:07.600Z,0.00
2019-05-23T00:36:42.790Z,0.00
2019-05-23T00:37:18.369Z,0.00
2019-05-23T00:37:53.564Z,0.00
2019-05-23T00:38:28.929Z,0.00
2019-05-23T00:39:04.143Z,0.00
2019-05-23T00:39:39.517Z,0.00
2019-05-23T00:40:14.915Z,0.00
2019-05-23T00:40:50.488Z,0.00
2019-05-23T00:41:25.619Z,0.00
2019-05-23T00:42:00.790Z,0.00
2019-05-23T00:42:36.181Z,0.00
2019-05-23T00:43:11.451Z,0.00
2019-05-23T00:43:46.759Z,0.00
2019-05-23T00:44:22.139Z,0.00
2019-05-23T00:44:57.455Z,0.00
2019-05-23T00:45:32.928Z,0.00
2019-05-23T00:46:08.349Z,0.00
2019-05-23T00:46:43.327Z,0.00
2019-05-23T00:47:18.536Z,0.00
2019-05-23T00:47:53.904Z,0.00
2019-05-23T00:48:29.212Z,0.00
2019-05-23T00:49:04.499Z,0.00
2019-05-23T00:49:39.902Z,0.00
2019-05-23T00:50:15.178Z,0.00
2019-05-23T00:50:50.792Z,0.00
2019-05-23T00:51:26.102Z,0.00
2019-05-23T00:52:01.215Z,0.00
2019-05-23T00:52:36.387Z,0.00
2019-05-23T00:53:11.792Z,0.00
2019-05-23T00:53:47.273Z,0.00
2019-05-23T00:54:22.594Z,0.00
2019-05-23T00:54:57.976Z,0.00
2019-05-23T00:55:33.184Z,0.00
2019-05-23T00:56:08.699Z,0.00
2019-05-23T00:56:44.192Z,0.00
2019-05-23T00:57:19.468Z,0.00
2019-05-23T00:57:54.889Z,0.00
2019-05-23T00:58:30.158Z,0.00
2019-05-23T00:59:05.568Z,0.00
2019-05-23T00:59:40.851Z,0.00
2019-05-23T01:00:16.271Z,0.00
2019-05-23T01:00:51.632Z,0.00
2019-05-23T01:01:26.931Z,0.00
2019-05-23T01:02:02.485Z,0.00
2019-05-23T01:02:37.864Z,0.00
2019-05-23T01:03:13.337Z,0.00
2019-05-23T01:03:48.748Z,0.00
2019-05-23T01:04:24.127Z,0.00
2019-05-23T01:04:59.450Z,0.00
2019-05-23T01:05:34.722Z,0.00
2019-05-23T01:06:09.858Z,0.00
2019-05-23T01:06:44.831Z,0.00
2019-05-23T01:07:20.052Z,0.00
2019-05-23T01:07:55.447Z,0.00
2019-05-23T01:08:30.648Z,0.00
2019-05-23T01:09:06.044Z,0.00
2019-05-23T01:09:41.444Z,0.00
2019-05-23T01:10:16.709Z,0.00
2019-05-23T01:10:52.229Z,0.00
2019-05-23T01:11:27.743Z,0.00
2019-05-23T01:12:03.152Z,0.00
2019-05-23T01:12:38.529Z,0.00
2019-05-23T01:13:13.941Z,0.00
2019-05-23T01:13:49.466Z,0.00
2019-05-23T01:14:24.766Z,0.00
2019-05-23T01:15:00.056Z,0.00
2019-05-23T01:15:35.579Z,0.00
2019-05-23T01:16:11.184Z,0.00
2019-05-23T01:16:46.500Z,0.00
2019-05-23T01:17:21.655Z,0.00
2019-05-23T01:17:56.874Z,0.00
2019-05-23T01:18:32.340Z,0.00
2019-05-23T01:19:07.857Z,0.00
2019-05-23T01:19:43.233Z,0.00
2019-05-23T01:20:18.559Z,0.00
2019-05-23T01:20:53.941Z,0.00
2019-05-23T01:21:29.266Z,0.00
2019-05-23T01:22:04.356Z,0.00
2019-05-23T01:22:40.073Z,0.00
2019-05-23T01:23:15.254Z,0.00
2019-05-23T01:23:50.759Z,0.00
2019-05-23T01:24:25.858Z,0.00
2019-05-23T01:25:01.092Z,0.00
2019-05-23T01:25:36.367Z,0.00
2019-05-23T01:26:11.899Z,0.00
2019-05-23T01:26:47.278Z,0.00
2019-05-23T01:27:22.981Z,0.00
2019-05-23T01:27:58.563Z,0.00
2019-05-23T01:28:33.881Z,0.00
2019-05-23T01:29:09.161Z,0.00
2019-05-23T01:29:49.696Z,0.00
2019-05-23T01:30:19.857Z,0.00
2019-05-23T01:30:55.268Z,0.00
2019-05-23T01:31:30.377Z,0.00
2019-05-23T01:32:05.894Z,0.00
2019-05-23T01:32:41.189Z,0.00
2019-05-23T01:33:16.805Z,0.00
2019-05-23T01:33:52.084Z,0.00
2019-05-23T01:34:27.505Z,0.00
2019-05-23T01:35:03.090Z,0.00
2019-05-23T01:35:38.208Z,0.00
2019-05-23T01:36:13.410Z,0.00
2019-05-23T01:36:48.828Z,0.00
2019-05-23T01:37:24.325Z,0.00
2019-05-23T01:38:04.056Z,0.00
2019-05-23T01:38:35.335Z,0.00
2019-05-23T01:39:10.642Z,0.00
2019-05-23T01:39:45.921Z,0.00
2019-05-23T01:40:21.135Z,0.00
2019-05-23T01:40:56.326Z,0.00
2019-05-23T01:41:31.567Z,0.00
2019-05-23T01:42:07.135Z,0.00
2019-05-23T01:42:42.364Z,0.00
2019-05-23T01:43:17.849Z,0.00
2019-05-23T01:43:53.152Z,0.00
2019-05-23T01:44:28.552Z,0.00
2019-05-23T01:45:03.947Z,0.00
2019-05-23T01:45:39.153Z,0.00
2019-05-23T01:46:14.792Z,0.00
2019-05-23T01:46:49.879Z,0.00
2019-05-23T01:47:25.087Z,0.00
2019-05-23T01:48:00.471Z,0.00
2019-05-23T01:48:35.680Z,0.00
2019-05-23T01:49:10.976Z,0.00
2019-05-23T01:49:46.502Z,0.00
2019-05-23T01:50:21.797Z,0.00
2019-05-23T01:50:57.298Z,0.00
2019-05-23T01:51:32.871Z,0.00
2019-05-23T01:52:08.116Z,0.00
2019-05-23T01:52:43.495Z,0.00
2019-05-23T01:53:18.705Z,0.00
2019-05-23T01:53:53.897Z,0.00
2019-05-23T01:54:29.200Z,0.00
2019-05-23T01:55:04.690Z,0.00
2019-05-23T01:55:39.999Z,0.00
2019-05-23T01:56:15.495Z,0.00
2019-05-23T01:56:50.894Z,0.00
2019-05-23T01:57:26.163Z,0.00
2019-05-23T01:58:01.590Z,0.00
2019-05-23T01:58:36.774Z,0.00
2019-05-23T01:59:12.387Z,0.00
2019-05-23T01:59:48.069Z,0.00
2019-05-23T02:00:23.481Z,0.00
2019-05-23T02:00:58.482Z,0.00
2019-05-23T02:01:33.924Z,0.00
2019-05-23T02:02:09.198Z,0.00
2019-05-23T02:02:44.785Z,0.00
2019-05-23T02:03:20.052Z,0.00
2019-05-23T02:03:55.377Z,0.00
2019-05-23T02:04:30.632Z,0.00
2019-05-23T02:05:05.947Z,0.00
2019-05-23T02:05:41.327Z,0.00
2019-05-23T02:06:16.582Z,0.00
2019-05-23T02:06:51.953Z,0.00
2019-05-23T02:07:27.086Z,0.00
2019-05-23T02:08:02.589Z,0.00
2019-05-23T02:08:37.857Z,0.00
2019-05-23T02:09:13.148Z,0.00
2019-05-23T02:09:48.540Z,0.00
2019-05-23T02:10:23.838Z,0.00
2019-05-23T02:10:58.952Z,0.00
2019-05-23T02:11:34.063Z,0.00
2019-05-23T02:12:09.176Z,0.00
2019-05-23T02:12:44.656Z,0.00
2019-05-23T02:13:20.276Z,0.00
2019-05-23T02:13:55.564Z,0.00
2019-05-23T02:14:30.880Z,0.00
2019-05-23T02:15:06.050Z,0.00
2019-05-23T02:15:41.550Z,0.00
2019-05-23T02:16:16.741Z,0.00
2019-05-23T02:16:52.054Z,0.00
2019-05-23T02:17:27.625Z,0.00
2019-05-23T02:18:02.995Z,0.00
2019-05-23T02:18:38.137Z,0.00
2019-05-23T02:19:13.754Z,0.00
2019-05-23T02:19:48.832Z,0.00
2019-05-23T02:20:24.055Z,0.00
2019-05-23T02:20:59.518Z,0.00
2019-05-23T02:21:35.255Z,0.00
2019-05-23T02:22:10.554Z,0.00
2019-05-23T02:22:46.366Z,0.00
2019-05-23T02:23:21.648Z,0.00
2019-05-23T02:23:57.370Z,0.00
2019-05-23T02:24:32.544Z,0.00
2019-05-23T02:25:08.044Z,0.00
2019-05-23T02:25:43.220Z,0.00
2019-05-23T02:26:18.448Z,0.00
2019-05-23T02:26:54.029Z,0.00
2019-05-23T02:27:29.574Z,0.00
2019-05-23T02:28:04.963Z,0.00
2019-05-23T02:28:40.455Z,0.00
2019-05-23T02:29:15.941Z,0.00
2019-05-23T02:29:51.076Z,0.00
2019-05-23T02:30:35.787Z,0.00
2019-05-23T02:31:01.663Z,0.00
2019-05-23T02:31:36.784Z,0.00
2019-05-23T02:32:12.387Z,0.00
2019-05-23T02:32:47.867Z,0.00
2019-05-23T02:33:23.262Z,0.00
2019-05-23T02:33:58.545Z,0.00
2019-05-23T02:34:33.772Z,0.00
2019-05-23T02:35:09.157Z,0.00
2019-05-23T02:35:44.693Z,0.00
2019-05-23T02:36:19.748Z,0.00
2019-05-23T02:36:54.963Z,0.00
2019-05-23T02:37:30.433Z,0.00
2019-05-23T02:38:05.745Z,0.00
2019-05-23T02:38:41.099Z,0.00
2019-05-23T02:39:16.410Z,0.00
2019-05-23T02:39:51.386Z,0.00
2019-05-23T02:40:26.804Z,0.00
2019-05-23T02:41:02.285Z,0.00
2019-05-23T02:41:37.604Z,0.00
2019-05-23T02:42:12.686Z,0.00
2019-05-23T02:42:48.204Z,0.00
2019-05-23T02:43:23.693Z,0.00
2019-05-23T02:43:58.904Z,0.00
2019-05-23T02:44:34.384Z,0.00
2019-05-23T02:45:09.899Z,0.00
2019-05-23T02:45:45.074Z,0.00
2019-05-23T02:46:20.435Z,0.00
2019-05-23T02:46:55.711Z,0.00
2019-05-23T02:47:31.419Z,0.00
2019-05-23T02:48:06.811Z,0.00
2019-05-23T02:48:42.112Z,0.00
2019-05-23T02:49:17.191Z,0.00
2019-05-23T02:49:52.500Z,0.00
2019-05-23T02:50:27.789Z,0.00
2019-05-23T02:51:03.141Z,0.00
2019-05-23T02:51:38.505Z,0.00
2019-05-23T02:52:14.209Z,0.00
2019-05-23T02:52:49.383Z,0.00
2019-05-23T02:53:24.594Z,0.00
2019-05-23T02:53:59.858Z,0.00
2019-05-23T02:54:37.448Z,0.00
2019-05-23T02:55:10.570Z,0.00
2019-05-23T02:55:45.688Z,0.00
2019-05-23T02:56:21.178Z,0.00
2019-05-23T02:56:56.514Z,0.00
2019-05-23T02:57:31.996Z,0.00
2019-05-23T02:58:07.306Z,0.00
2019-05-23T02:58:42.579Z,0.00
2019-05-23T02:59:17.882Z,0.00
2019-05-23T02:59:53.263Z,0.00
2019-05-23T03:00:28.757Z,0.00
2019-05-23T03:01:04.039Z,0.00
2019-05-23T03:01:39.740Z,0.00
2019-05-23T03:02:15.121Z,0.00
2019-05-23T03:02:50.349Z,0.00
2019-05-23T03:03:25.526Z,0.00
2019-05-23T03:04:00.728Z,0.00
2019-05-23T03:04:36.409Z,0.00
2019-05-23T03:05:11.811Z,0.00
2019-05-23T03:05:47.084Z,0.00
2019-05-23T03:06:22.420Z,0.00
2019-05-23T03:06:57.502Z,0.00
2019-05-23T03:07:32.812Z,0.00
2019-05-23T03:08:08.399Z,0.00
2019-05-23T03:08:43.700Z,0.00
2019-05-23T03:09:18.772Z,0.00
2019-05-23T03:09:54.089Z,0.00
2019-05-23T03:10:29.570Z,0.00
2019-05-23T03:11:04.983Z,0.00
2019-05-23T03:11:40.308Z,0.00
2019-05-23T03:12:15.841Z,0.00
2019-05-23T03:12:51.120Z,0.00
2019-05-23T03:13:26.613Z,0.00
2019-05-23T03:14:02.187Z,0.00
2019-05-23T03:14:37.791Z,0.00
2019-05-23T03:15:13.268Z,0.00
2019-05-23T03:15:48.485Z,0.00
2019-05-23T03:16:23.690Z,0.00
2019-05-23T03:16:58.794Z,0.00
2019-05-23T03:17:33.981Z,0.00
2019-05-23T03:18:09.486Z,0.00
2019-05-23T03:18:44.955Z,0.00
2019-05-23T03:19:20.454Z,0.00
2019-05-23T03:19:56.157Z,0.00
2019-05-23T03:20:31.269Z,0.00
2019-05-23T03:21:06.748Z,0.00
2019-05-23T03:21:41.961Z,0.00
2019-05-23T03:22:17.144Z,0.00
2019-05-23T03:22:52.651Z,0.00
2019-05-23T03:23:27.922Z,0.00
2019-05-23T03:24:03.549Z,0.00
2019-05-23T03:24:38.722Z,0.00
2019-05-23T03:25:14.214Z,0.00
2019-05-23T03:25:49.488Z,0.00
2019-05-23T03:26:25.117Z,0.00
2019-05-23T03:27:00.374Z,0.00
2019-05-23T03:27:35.390Z,0.00
2019-05-23T03:28:11.060Z,0.00
2019-05-23T03:28:46.322Z,0.00
2019-05-23T03:29:21.560Z,0.00
2019-05-23T03:29:56.758Z,0.00
2019-05-23T03:30:31.937Z,0.00
2019-05-23T03:31:27.393Z,0.00
2019-05-23T03:31:42.787Z,0.00
2019-05-23T03:32:18.258Z,0.00
2019-05-23T03:32:53.354Z,0.00
2019-05-23T03:33:28.688Z,0.00
2019-05-23T03:34:04.077Z,0.00
2019-05-23T03:34:39.365Z,0.00
2019-05-23T03:35:14.544Z,0.00
2019-05-23T03:35:49.846Z,0.00
2019-05-23T03:36:25.523Z,0.00
2019-05-23T03:37:00.843Z,0.00
2019-05-23T03:37:56.127Z,0.00
2019-05-23T03:38:31.521Z,0.00
2019-05-23T03:39:06.710Z,0.00
2019-05-23T03:39:42.118Z,0.00
2019-05-23T03:40:17.392Z,0.00
2019-05-23T03:40:52.905Z,0.00
2019-05-23T03:41:28.087Z,0.00
2019-05-23T03:42:03.398Z,0.00
2019-05-23T03:42:38.576Z,0.00
2019-05-23T03:43:13.871Z,0.00
2019-05-23T03:43:49.163Z,0.00
2019-05-23T03:44:24.480Z,5.00
2019-05-23T03:44:59.851Z,5.00
2019-05-23T03:45:39.357Z,5.00
2019-05-23T03:46:10.752Z,5.00
2019-05-23T03:46:46.161Z,5.00
2019-05-23T03:47:21.352Z,5.00
2019-05-23T03:47:56.758Z,5.00
2019-05-23T03:48:32.047Z,5.00
2019-05-23T03:49:07.456Z,5.00
2019-05-23T03:49:42.833Z,5.00
2019-05-23T03:50:18.326Z,5.00
2019-05-23T03:50:53.718Z,5.00
2019-05-23T03:51:29.047Z,5.00
2019-05-23T03:52:04.632Z,5.00
2019-05-23T03:52:39.833Z,5.00
2019-05-23T03:53:15.113Z,5.00
2019-05-23T03:53:50.720Z,5.00
2019-05-23T03:54:26.006Z,5.00
2019-05-23T03:55:01.809Z,5.00
2019-05-23T03:55:37.079Z,5.00
2019-05-23T03:56:12.298Z,5.00
2019-05-23T03:56:47.372Z,5.00
2019-05-23T03:57:25.573Z,5.00
2019-05-23T03:57:57.959Z,5.00
2019-05-23T03:58:33.680Z,5.00
2019-05-23T03:59:08.949Z,5.00
2019-05-23T03:59:44.458Z,5.00
2019-05-23T04:00:20.047Z,5.00
2019-05-23T04:00:55.347Z,11.00
2019-05-23T04:01:45.979Z,11.00
2019-05-23T04:02:05.767Z,11.00
2019-05-23T04:02:41.332Z,11.00
2019-05-23T04:03:16.868Z,11.00
2019-05-23T04:03:52.010Z,11.00
2019-05-23T04:04:27.319Z,11.00
2019-05-23T04:05:02.532Z,11.00
2019-05-23T04:05:37.704Z,11.00
2019-05-23T04:06:13.000Z,11.00
2019-05-23T04:06:48.112Z,11.00
2019-05-23T04:07:23.290Z,11.00
2019-05-23T04:07:58.718Z,11.00
2019-05-23T04:08:34.010Z,11.00
2019-05-23T04:09:09.349Z,11.00
2019-05-23T04:09:44.723Z,11.00
2019-05-23T04:10:19.830Z,11.00
2019-05-23T04:10:55.086Z,11.00
2019-05-23T04:11:30.535Z,11.00
2019-05-23T04:12:05.798Z,11.00
2019-05-23T04:12:41.128Z,11.00
2019-05-23T04:13:16.728Z,16.00
2019-05-23T04:13:51.923Z,16.00
2019-05-23T04:14:27.113Z,16.00
2019-05-23T04:15:02.099Z,16.00
2019-05-23T04:15:37.280Z,16.00
2019-05-23T04:16:12.582Z,16.00
2019-05-23T04:16:47.869Z,16.00
2019-05-23T04:17:23.272Z,16.00
2019-05-23T04:17:58.449Z,16.00
2019-05-23T04:18:33.441Z,16.00
2019-05-23T04:19:08.821Z,16.00
2019-05-23T04:19:44.229Z,16.00
2019-05-23T04:20:19.200Z,16.00
2019-05-23T04:20:54.409Z,16.00
2019-05-23T04:21:29.726Z,16.00
2019-05-23T04:22:05.021Z,16.00
2019-05-23T04:22:40.403Z,16.00
2019-05-23T04:23:15.500Z,22.00
2019-05-23T04:23:50.776Z,22.00
2019-05-23T04:24:26.173Z,22.00
2019-05-23T04:25:02.323Z,22.00
2019-05-23T04:25:37.192Z,22.00
2019-05-23T04:26:12.502Z,22.00
2019-05-23T04:26:47.783Z,16.00
2019-05-23T04:27:23.377Z,22.00
2019-05-23T04:27:58.559Z,22.00
2019-05-23T04:28:33.753Z,22.00
2019-05-23T04:29:09.031Z,22.00
2019-05-23T04:29:44.331Z,22.00
2019-05-23T04:30:19.500Z,22.00
2019-05-23T04:30:54.899Z,22.00
2019-05-23T04:31:30.203Z,22.00
2019-05-23T04:32:08.745Z,22.00
2019-05-23T04:32:41.026Z,22.00
2019-05-23T04:33:16.291Z,22.00
2019-05-23T04:33:51.581Z,22.00
2019-05-23T04:34:27.288Z,22.00
2019-05-23T04:35:02.556Z,22.00
2019-05-23T04:35:38.191Z,22.00
2019-05-23T04:36:13.894Z,22.00
2019-05-23T04:36:49.189Z,22.00
2019-05-23T04:37:24.674Z,22.00
2019-05-23T04:37:59.974Z,22.00
2019-05-23T04:38:36.442Z,22.00
2019-05-23T04:39:10.574Z,22.00
2019-05-23T04:39:46.143Z,22.00
2019-05-23T04:40:21.365Z,22.00
2019-05-23T04:40:56.735Z,22.00
2019-05-23T04:41:32.254Z,22.00
2019-05-23T04:42:07.938Z,22.00
2019-05-23T04:42:43.259Z,22.00
2019-05-23T04:43:19.034Z,22.00
2019-05-23T04:43:54.447Z,22.00
2019-05-23T04:44:29.622Z,22.00
2019-05-23T04:45:04.813Z,22.00
2019-05-23T04:45:40.130Z,22.00
2019-05-23T04:46:15.361Z,22.00
2019-05-23T04:46:50.756Z,22.00
2019-05-23T04:47:26.036Z,22.00
2019-05-23T04:48:01.649Z,22.00
2019-05-23T04:48:36.819Z,28.00
2019-05-23T04:49:12.148Z,28.00
2019-05-23T04:49:47.412Z,28.00
2019-05-23T04:50:22.810Z,28.00
2019-05-23T04:51:00.179Z,28.00
2019-05-23T04:51:33.645Z,28.00
2019-05-23T04:52:09.031Z,28.00
2019-05-23T04:52:44.155Z,28.00
2019-05-23T04:53:19.437Z,28.00
2019-05-23T04:53:54.738Z,28.00
2019-05-23T04:54:30.029Z,28.00
2019-05-23T04:55:05.328Z,28.00
2019-05-23T04:55:40.607Z,28.00
2019-05-23T04:56:16.028Z,28.00
2019-05-23T04:56:51.207Z,28.00
2019-05-23T04:57:26.809Z,28.00
2019-05-23T04:58:04.665Z,28.00
2019-05-23T04:58:37.386Z,28.00
2019-05-23T04:59:12.868Z,33.00
2019-05-23T04:59:48.189Z,33.00
2019-05-23T05:00:23.559Z,33.00
2019-05-23T05:00:59.501Z,33.00
2019-05-23T05:01:34.837Z,33.00
2019-05-23T05:02:24.777Z,33.00
2019-05-23T05:02:45.522Z,33.00
2019-05-23T05:03:20.901Z,33.00
2019-05-23T05:03:56.102Z,33.00
2019-05-23T05:04:31.423Z,33.00
2019-05-23T05:05:06.791Z,33.00
2019-05-23T05:05:41.921Z,39.00
2019-05-23T05:06:17.207Z,39.00
2019-05-23T05:06:52.406Z,39.00
2019-05-23T05:07:27.874Z,39.00
2019-05-23T05:08:03.313Z,39.00
2019-05-23T05:08:38.742Z,39.00
2019-05-23T05:09:14.227Z,39.00
2019-05-23T05:09:49.454Z,45.00
2019-05-23T05:10:24.846Z,45.00
2019-05-23T05:11:00.148Z,45.00
2019-05-23T05:11:35.545Z,45.00
2019-05-23T05:12:10.637Z,45.00
2019-05-23T05:12:46.214Z,45.00
2019-05-23T05:13:21.632Z,45.00
2019-05-23T05:13:57.316Z,45.00
2019-05-23T05:14:33.583Z,45.00
2019-05-23T05:15:09.062Z,45.00
2019-05-23T05:15:44.333Z,50.00
2019-05-23T05:16:19.579Z,50.00
2019-05-23T05:16:54.966Z,50.00
2019-05-23T05:17:30.602Z,50.00
2019-05-23T05:18:06.311Z,56.00
2019-05-23T05:18:41.518Z,56.00
2019-05-23T05:19:16.748Z,56.00
2019-05-23T05:19:51.995Z,56.00
2019-05-23T05:20:27.389Z,56.00
2019-05-23T05:21:02.784Z,56.00
2019-05-23T05:21:38.231Z,56.00
2019-05-23T05:22:13.910Z,56.00
2019-05-23T05:22:49.191Z,56.00
2019-05-23T05:23:24.702Z,61.00
2019-05-23T05:24:00.080Z,61.00
2019-05-23T05:24:39.809Z,61.00
2019-05-23T05:25:10.972Z,61.00
2019-05-23T05:25:46.182Z,61.00
2019-05-23T05:26:21.349Z,61.00
2019-05-23T05:26:56.627Z,61.00
2019-05-23T05:27:31.942Z,61.00
2019-05-23T05:28:07.134Z,67.00
2019-05-23T05:28:42.550Z,67.00
2019-05-23T05:29:17.741Z,67.00
2019-05-23T05:29:53.085Z,67.00
2019-05-23T05:30:28.366Z,67.00
2019-05-23T05:31:03.827Z,73.00
2019-05-23T05:31:39.338Z,73.00
2019-05-23T05:32:14.848Z,73.00
2019-05-23T05:32:50.435Z,73.00
2019-05-23T05:33:25.647Z,73.00
2019-05-23T05:34:01.043Z,73.00
2019-05-23T05:34:36.336Z,78.00
2019-05-23T05:35:11.667Z,78.00
2019-05-23T05:35:46.939Z,78.00
2019-05-23T05:36:22.363Z,78.00
2019-05-23T05:36:57.966Z,78.00
2019-05-23T05:37:33.368Z,78.00
2019-05-23T05:38:08.661Z,84.00
2019-05-23T05:38:44.167Z,84.00
2019-05-23T05:39:19.862Z,84.00
2019-05-23T05:39:55.061Z,84.00
2019-05-23T05:40:30.538Z,84.00
2019-05-23T05:41:05.762Z,84.00
2019-05-23T05:41:40.954Z,84.00
2019-05-23T05:42:16.273Z,84.00
2019-05-23T05:42:51.350Z,84.00
2019-05-23T05:43:26.667Z,84.00
2019-05-23T05:44:02.169Z,90.00
2019-05-23T05:44:37.567Z,90.00
2019-05-23T05:45:13.162Z,95.00
2019-05-23T05:45:48.473Z,95.00
2019-05-23T05:46:23.997Z,101.00
2019-05-23T05:46:59.502Z,101.00
2019-05-23T05:47:34.887Z,106.00
2019-05-23T05:48:10.399Z,106.00
2019-05-23T05:48:46.084Z,112.00
2019-05-23T05:49:21.517Z,118.00
2019-05-23T05:49:56.700Z,118.00
2019-05-23T05:50:31.902Z,123.00
2019-05-23T05:51:07.052Z,123.00
2019-05-23T05:51:42.284Z,118.00
2019-05-23T05:52:17.583Z,112.00
2019-05-23T05:52:52.896Z,112.00
2019-05-23T05:53:28.322Z,112.00
2019-05-23T05:54:03.640Z,123.00
2019-05-23T05:54:38.941Z,129.00
2019-05-23T05:55:14.329Z,135.00
2019-05-23T05:55:49.646Z,135.00
2019-05-23T05:56:25.059Z,129.00
2019-05-23T05:57:00.671Z,157.00
2019-05-23T05:57:36.053Z,202.00
2019-05-23T05:58:11.570Z,225.00
2019-05-23T05:58:46.855Z,236.00
2019-05-23T05:59:22.035Z,247.00
2019-05-23T05:59:57.251Z,247.00
2019-05-23T06:00:32.547Z,247.00
2019-05-23T06:01:07.897Z,253.00
2019-05-23T06:01:43.580Z,253.00
2019-05-23T06:02:18.887Z,253.00
2019-05-23T06:03:03.450Z,258.00
2019-05-23T06:03:29.413Z,264.00
2019-05-23T06:04:04.791Z,270.00
2019-05-23T06:04:40.282Z,281.00
2019-05-23T06:05:15.454Z,281.00
2019-05-23T06:05:50.591Z,258.00
2019-05-23T06:06:26.005Z,253.00
2019-05-23T06:07:01.722Z,253.00
2019-05-23T06:07:36.907Z,264.00
2019-05-23T06:08:12.478Z,281.00
2019-05-23T06:08:47.839Z,303.00
2019-05-23T06:09:23.014Z,320.00
2019-05-23T06:09:58.625Z,337.00
2019-05-23T06:10:34.420Z,371.00
2019-05-23T06:11:09.971Z,433.00
2019-05-23T06:11:45.359Z,511.00
2019-05-23T06:12:20.785Z,506.00
2019-05-23T06:12:55.972Z,489.00
2019-05-23T06:13:31.377Z,450.00
2019-05-23T06:14:06.739Z,433.00
2019-05-23T06:14:45.944Z,478.00
2019-05-23T06:15:17.487Z,517.00
2019-05-23T06:15:52.752Z,545.00
2019-05-23T06:16:27.891Z,528.00
2019-05-23T06:17:03.591Z,506.00
2019-05-23T06:17:39.198Z,534.00
2019-05-23T06:18:14.488Z,556.00
2019-05-23T06:18:49.786Z,585.00
2019-05-23T06:19:24.976Z,618.00
2019-05-23T06:20:00.307Z,646.00
2019-05-23T06:20:35.580Z,680.00
2019-05-23T06:21:10.903Z,675.00
2019-05-23T06:21:46.315Z,669.00
2019-05-23T06:22:21.836Z,669.00
2019-05-23T06:22:57.341Z,714.00
2019-05-23T06:23:32.841Z,770.00
2019-05-23T06:24:08.184Z,832.00
2019-05-23T06:24:48.914Z,849.00
2019-05-23T06:25:18.911Z,871.00
2019-05-23T06:25:54.601Z,860.00
2019-05-23T06:26:29.837Z,832.00
2019-05-23T06:27:05.249Z,798.00
2019-05-23T06:27:40.466Z,838.00
2019-05-23T06:28:15.944Z,815.00
2019-05-23T06:28:51.371Z,720.00
2019-05-23T06:29:26.762Z,590.00
2019-05-23T06:30:02.192Z,472.00
2019-05-23T06:30:37.290Z,405.00
2019-05-23T06:31:12.927Z,371.00
2019-05-23T06:31:48.230Z,360.00
2019-05-23T06:32:23.457Z,343.00
2019-05-23T06:32:58.673Z,281.00
2019-05-23T06:33:34.282Z,286.00
2019-05-23T06:34:09.495Z,354.00
2019-05-23T06:34:44.999Z,360.00
2019-05-23T06:35:20.350Z,365.00
2019-05-23T06:35:55.532Z,371.00
2019-05-23T06:36:31.169Z,376.00
2019-05-23T06:37:06.441Z,388.00
2019-05-23T06:37:42.176Z,444.00
2019-05-23T06:38:17.375Z,568.00
2019-05-23T06:38:52.686Z,613.00
2019-05-23T06:39:28.078Z,607.00
2019-05-23T06:40:03.498Z,540.00
2019-05-23T06:40:38.985Z,438.00
2019-05-23T06:41:14.220Z,371.00
2019-05-23T06:41:49.654Z,365.00
2019-05-23T06:42:24.849Z,371.00
2019-05-23T06:43:00.392Z,376.00
2019-05-23T06:43:35.807Z,382.00
2019-05-23T06:44:11.131Z,393.00
2019-05-23T06:44:46.515Z,410.00
2019-05-23T06:45:21.832Z,421.00
2019-05-23T06:45:57.023Z,433.00
2019-05-23T06:46:32.461Z,489.00
2019-05-23T06:47:07.649Z,630.00
2019-05-23T06:47:43.159Z,770.00
2019-05-23T06:48:18.580Z,905.00
2019-05-23T06:48:53.952Z,973.00
2019-05-23T06:49:29.174Z,1012.00
2019-05-23T06:50:04.598Z,1063.00
2019-05-23T06:50:39.809Z,1085.00
2019-05-23T06:51:14.852Z,1119.00
2019-05-23T06:51:50.281Z,1164.00
2019-05-23T06:52:25.682Z,1220.00
2019-05-23T06:53:01.101Z,1243.00
2019-05-23T06:53:36.592Z,1198.00
2019-05-23T06:54:12.131Z,1153.00
2019-05-23T06:54:47.427Z,1130.00
2019-05-23T06:55:22.548Z,1119.00
2019-05-23T06:55:57.822Z,1102.00
2019-05-23T06:56:32.954Z,1164.00
2019-05-23T06:57:08.338Z,1203.00
2019-05-23T06:57:43.693Z,1231.00
2019-05-23T06:58:19.684Z,1209.00
2019-05-23T06:58:54.750Z,1203.00
2019-05-23T06:59:30.470Z,1220.00
2019-05-23T07:00:05.933Z,1113.00
2019-05-23T07:00:41.319Z,984.00
2019-05-23T07:01:16.833Z,1091.00
2019-05-23T07:01:52.155Z,1153.00
2019-05-23T07:02:31.495Z,1321.00
2019-05-23T07:03:03.108Z,1434.00
2019-05-23T07:03:43.203Z,1451.00
2019-05-23T07:04:13.823Z,1513.00
2019-05-23T07:04:49.198Z,1496.00
2019-05-23T07:05:24.621Z,1462.00
2019-05-23T07:06:00.139Z,1389.00
2019-05-23T07:06:35.311Z,1321.00
2019-05-23T07:07:10.531Z,1327.00
2019-05-23T07:07:45.740Z,1338.00
2019-05-23T07:08:25.015Z,1366.00
2019-05-23T07:08:56.424Z,1361.00
2019-05-23T07:09:31.973Z,1372.00
2019-05-23T07:10:07.657Z,1338.00
2019-05-23T07:10:43.759Z,1333.00
2019-05-23T07:11:18.434Z,1321.00
2019-05-23T07:11:53.645Z,1305.00
2019-05-23T07:12:29.029Z,1293.00
2019-05-23T07:13:04.368Z,1271.00
2019-05-23T07:13:39.452Z,1271.00
2019-05-23T07:14:14.705Z,1248.00
2019-05-23T07:14:50.192Z,1265.00
2019-05-23T07:15:25.767Z,1316.00
2019-05-23T07:16:01.188Z,1350.00
2019-05-23T07:16:36.790Z,1395.00
2019-05-23T07:17:12.129Z,1434.00
2019-05-23T07:17:47.304Z,1451.00
2019-05-23T07:18:22.530Z,1423.00
2019-05-23T07:18:57.928Z,1395.00
2019-05-23T07:19:33.450Z,1406.00
2019-05-23T07:20:08.698Z,1417.00
2019-05-23T07:20:44.471Z,1445.00
2019-05-23T07:21:19.315Z,1518.00
2019-05-23T07:21:54.983Z,1608.00
2019-05-23T07:22:29.945Z,1687.00
2019-05-23T07:23:05.266Z,1732.00
2019-05-23T07:23:40.585Z,1710.00
2019-05-23T07:24:15.787Z,1653.00
2019-05-23T07:24:58.214Z,1693.00
2019-05-23T07:25:26.805Z,1755.00
2019-05-23T07:26:02.488Z,1794.00
2019-05-23T07:26:37.532Z,1839.00
2019-05-23T07:27:12.741Z,1861.00
2019-05-23T07:27:47.942Z,1895.00
2019-05-23T07:28:23.261Z,1951.00
2019-05-23T07:28:58.800Z,1946.00
2019-05-23T07:29:34.371Z,1890.00
2019-05-23T07:30:09.681Z,1845.00
2019-05-23T07:30:44.797Z,1890.00
2019-05-23T07:31:20.037Z,1912.00
2019-05-23T07:31:55.422Z,1895.00
2019-05-23T07:32:30.641Z,1873.00
2019-05-23T07:33:06.135Z,1901.00
2019-05-23T07:33:59.935Z,1980.00
2019-05-23T07:34:16.918Z,2047.00
2019-05-23T07:34:52.290Z,2070.00
2019-05-23T07:35:27.472Z,1968.00
2019-05-23T07:36:02.974Z,1873.00
2019-05-23T07:36:38.225Z,1777.00
2019-05-23T07:37:13.924Z,1631.00
2019-05-23T07:37:49.267Z,1456.00
2019-05-23T07:38:24.660Z,1321.00